createdAt,value
2018-12-17T00:01:18.886Z,10.00
2018-12-17T00:04:22.155Z,9.30
2018-12-17T00:07:25.406Z,9.90
2018-12-17T00:10:28.611Z,9.10
2018-12-17T00:13:31.870Z,8.97
2018-12-17T00:16:35.086Z,9.30
2018-12-17T00:19:38.360Z,9.23
2018-12-17T00:22:41.539Z,8.73
2018-12-17T00:25:44.794Z,8.53
2018-12-17T00:28:47.959Z,9.23
2018-12-17T00:31:51.088Z,8.30
2018-12-17T00:34:54.383Z,8.00
2018-12-17T00:37:57.541Z,8.23
2018-12-17T00:41:00.685Z,8.17
2018-12-17T00:44:04.000Z,8.13
2018-12-17T00:47:07.166Z,8.50
2018-12-17T00:51:13.471Z,8.13
2018-12-17T00:54:16.602Z,7.67
2018-12-17T00:57:19.777Z,7.97
2018-12-17T01:00:23.020Z,7.70
2018-12-17T01:03:26.191Z,7.30
2018-12-17T01:06:29.392Z,7.33
2018-12-17T01:09:32.735Z,7.70
2018-12-17T01:12:35.958Z,7.20
2018-12-17T01:15:39.207Z,7.43
2018-12-17T01:18:42.403Z,6.97
2018-12-17T01:21:45.583Z,7.00
2018-12-17T01:24:48.743Z,7.13
2018-12-17T01:27:51.983Z,7.40
2018-12-17T01:30:55.208Z,7.13
2018-12-17T01:33:58.389Z,7.07
2018-12-17T01:37:01.758Z,7.17
2018-12-17T01:40:05.181Z,7.10
2018-12-17T01:43:08.324Z,7.30
2018-12-17T01:46:11.578Z,7.13
2018-12-17T01:49:14.828Z,7.00
2018-12-17T01:52:18.034Z,7.07
2018-12-17T01:55:21.195Z,7.00
2018-12-17T01:58:29.243Z,6.83
2018-12-17T02:01:29.447Z,6.90
2018-12-17T02:04:32.738Z,6.93
2018-12-17T02:07:35.901Z,6.67
2018-12-17T02:10:39.023Z,7.10
2018-12-17T02:13:42.655Z,6.70
2018-12-17T02:16:45.840Z,6.43
2018-12-17T02:19:49.017Z,7.10
2018-12-17T02:22:52.300Z,6.97
2018-12-17T02:25:55.532Z,6.77
2018-12-17T02:28:59.768Z,6.93
2018-12-17T02:32:03.000Z,6.50
2018-12-17T02:35:06.342Z,6.23
2018-12-17T02:38:09.521Z,6.80
2018-12-17T02:41:12.705Z,6.33
2018-12-17T02:44:16.147Z,6.17
2018-12-17T02:47:19.350Z,6.67
2018-12-17T02:50:22.517Z,6.30
2018-12-17T02:53:25.667Z,7.03
2018-12-17T02:56:28.787Z,6.60
2018-12-17T02:59:31.954Z,6.63
2018-12-17T03:02:35.205Z,6.50
2018-12-17T03:05:38.552Z,6.80
2018-12-17T03:08:41.751Z,6.33
2018-12-17T03:11:44.955Z,6.73
2018-12-17T03:14:48.095Z,6.63
2018-12-17T03:17:51.257Z,6.07
2018-12-17T03:20:54.381Z,6.70
2018-12-17T03:23:57.595Z,6.53
2018-12-17T03:27:00.858Z,6.63
2018-12-17T03:30:04.903Z,6.47
2018-12-17T03:33:08.137Z,6.10
2018-12-17T03:36:13.481Z,6.33
2018-12-17T03:39:16.711Z,6.33
2018-12-17T03:42:19.941Z,6.30
2018-12-17T03:45:23.127Z,6.20
2018-12-17T03:48:26.215Z,6.40
2018-12-17T03:51:29.382Z,6.33
2018-12-17T03:54:32.629Z,5.90
2018-12-17T03:57:35.723Z,6.47
2018-12-17T04:00:38.868Z,6.27
2018-12-17T04:03:42.012Z,6.50
2018-12-17T04:06:45.241Z,6.47
2018-12-17T04:09:48.900Z,6.67
2018-12-17T04:12:52.178Z,6.53
2018-12-17T04:15:55.327Z,5.90
2018-12-17T04:18:58.432Z,6.43
2018-12-17T04:22:01.687Z,6.83
2018-12-17T04:25:05.403Z,6.00
2018-12-17T04:28:10.378Z,6.10
2018-12-17T04:31:13.577Z,6.43
2018-12-17T04:34:16.766Z,6.37
2018-12-17T04:37:19.889Z,6.07
2018-12-17T04:40:23.197Z,6.10
2018-12-17T04:43:26.355Z,6.00
2018-12-17T04:46:29.487Z,6.60
2018-12-17T04:49:32.597Z,6.50
2018-12-17T04:52:35.769Z,6.63
2018-12-17T04:55:39.035Z,6.60
2018-12-17T04:58:42.183Z,7.47
2018-12-17T05:01:45.350Z,6.07
2018-12-17T05:04:48.454Z,6.90
2018-12-17T05:07:52.671Z,6.47
2018-12-17T05:10:55.775Z,6.97
2018-12-17T05:13:58.951Z,7.80
2018-12-17T05:17:02.307Z,7.53
2018-12-17T05:20:05.592Z,7.80
2018-12-17T05:23:08.798Z,6.83
2018-12-17T05:26:12.012Z,8.23
2018-12-17T05:29:21.422Z,7.13
2018-12-17T05:32:20.382Z,7.20
2018-12-17T05:35:23.502Z,7.20
2018-12-17T05:38:26.718Z,6.90
2018-12-17T05:41:29.836Z,7.07
2018-12-17T05:44:33.071Z,7.60
2018-12-17T05:47:36.381Z,7.20
2018-12-17T05:50:39.631Z,7.10
2018-12-17T05:53:42.872Z,7.47
2018-12-17T05:56:46.082Z,7.07
2018-12-17T05:59:49.281Z,7.10
2018-12-17T06:02:52.389Z,7.40
2018-12-17T06:05:55.551Z,6.90
2018-12-17T06:08:58.764Z,7.47
2018-12-17T06:12:01.953Z,7.33
2018-12-17T06:15:05.536Z,6.97
2018-12-17T06:18:08.728Z,7.00
2018-12-17T06:21:11.948Z,6.87
2018-12-17T06:24:15.139Z,7.43
2018-12-17T06:27:18.329Z,7.17
2018-12-17T06:30:21.487Z,7.30
2018-12-17T06:33:24.576Z,6.60
2018-12-17T06:36:27.762Z,6.93
2018-12-17T06:39:31.045Z,6.87
2018-12-17T06:42:34.138Z,6.90
2018-12-17T06:45:37.426Z,6.80
2018-12-17T06:48:40.560Z,7.67
2018-12-17T06:51:43.971Z,6.73
2018-12-17T06:54:47.075Z,7.50
2018-12-17T06:57:50.598Z,7.00
2018-12-17T07:00:53.799Z,6.80
2018-12-17T07:03:56.946Z,7.77
2018-12-17T07:07:00.099Z,7.37
2018-12-17T07:10:03.387Z,8.50
2018-12-17T07:13:06.607Z,9.37
2018-12-17T07:16:09.807Z,9.93
2018-12-17T07:19:13.053Z,10.40
2018-12-17T07:22:16.179Z,10.73
2018-12-17T07:25:19.295Z,11.33
2018-12-17T07:28:22.409Z,11.57
2018-12-17T07:31:25.779Z,10.90
2018-12-17T07:34:29.200Z,11.43
2018-12-17T07:37:32.439Z,10.93
2018-12-17T07:40:35.720Z,10.60
2018-12-17T07:43:39.455Z,10.77
2018-12-17T07:46:42.600Z,10.93
2018-12-17T07:49:45.732Z,11.03
2018-12-17T07:52:48.841Z,10.90
2018-12-17T07:55:52.038Z,10.33
2018-12-17T07:58:55.163Z,10.17
2018-12-17T08:01:59.156Z,10.63
2018-12-17T08:05:02.438Z,10.63
2018-12-17T08:08:05.718Z,9.97
2018-12-17T08:11:08.975Z,10.07
2018-12-17T08:14:14.399Z,9.70
2018-12-17T08:17:17.791Z,9.57
2018-12-17T08:20:21.015Z,9.73
2018-12-17T08:23:24.154Z,10.33
2018-12-17T08:26:27.267Z,9.70
2018-12-17T08:29:30.415Z,9.03
2018-12-17T08:32:33.589Z,10.07
2018-12-17T08:35:36.766Z,9.40
2018-12-17T08:38:39.886Z,9.77
2018-12-17T08:41:43.089Z,9.17
2018-12-17T08:44:46.227Z,9.33
2018-12-17T08:47:49.499Z,9.63
2018-12-17T08:50:52.677Z,9.33
2018-12-17T08:53:56.143Z,9.23
2018-12-17T08:56:59.392Z,9.33
2018-12-17T09:00:02.542Z,9.53
2018-12-17T09:03:05.631Z,8.77
2018-12-17T09:06:08.768Z,9.27
2018-12-17T09:09:12.105Z,9.50
2018-12-17T09:12:15.316Z,8.87
2018-12-17T09:15:18.650Z,9.13
2018-12-17T09:18:21.962Z,8.73
2018-12-17T09:21:25.138Z,9.10
2018-12-17T09:24:28.238Z,8.90
2018-12-17T09:27:31.609Z,8.87
2018-12-17T09:30:41.169Z,8.83
2018-12-17T09:33:39.993Z,9.40
2018-12-17T09:36:43.159Z,9.00
2018-12-17T09:39:46.374Z,9.40
2018-12-17T09:42:49.736Z,9.30
2018-12-17T09:49:07.889Z,9.47
2018-12-17T09:52:11.061Z,8.97
2018-12-17T09:55:14.364Z,9.63
2018-12-17T09:58:17.577Z,10.00
2018-12-17T10:01:20.708Z,10.57
2018-12-17T10:04:23.943Z,9.70
2018-12-17T10:07:30.415Z,10.67
2018-12-17T10:10:32.276Z,10.20
2018-12-17T10:13:35.502Z,10.40
2018-12-17T10:16:38.634Z,10.60
2018-12-17T10:19:41.909Z,10.73
2018-12-17T10:22:45.108Z,10.40
2018-12-17T10:25:48.344Z,10.73
2018-12-17T10:28:51.456Z,10.90
2018-12-17T10:31:54.695Z,11.00
2018-12-17T10:34:57.843Z,10.87
2018-12-17T10:38:02.142Z,11.07
2018-12-17T10:41:05.444Z,10.40
2018-12-17T10:44:08.698Z,11.33
2018-12-17T10:47:11.959Z,10.60
2018-12-17T10:50:15.097Z,11.00
2018-12-17T10:53:18.222Z,10.50
2018-12-17T10:56:21.415Z,10.53
2018-12-17T10:59:24.570Z,10.87
2018-12-17T11:02:34.910Z,11.40
2018-12-17T11:05:39.702Z,11.40
2018-12-17T11:08:42.828Z,12.07
2018-12-17T11:11:45.931Z,10.97
2018-12-17T11:14:49.156Z,12.03
2018-12-17T11:17:52.271Z,11.20
2018-12-17T11:20:55.471Z,10.53
2018-12-17T11:23:58.603Z,10.23
2018-12-17T11:27:01.839Z,11.17
2018-12-17T11:30:07.056Z,12.00
2018-12-17T11:33:10.165Z,12.13
2018-12-17T11:36:13.425Z,12.40
2018-12-17T11:39:17.291Z,12.90
2018-12-17T11:42:20.560Z,12.40
2018-12-17T11:45:23.865Z,11.27
2018-12-17T11:48:27.233Z,11.53
2018-12-17T11:51:30.476Z,11.13
2018-12-17T11:54:33.680Z,11.30
2018-12-17T11:57:50.060Z,11.17
2018-12-17T12:01:01.235Z,10.60
2018-12-17T12:04:04.465Z,10.93
2018-12-17T12:07:07.588Z,10.10
2018-12-17T12:10:10.847Z,10.23
2018-12-17T12:13:13.989Z,10.43
2018-12-17T12:16:17.233Z,9.97
2018-12-17T12:19:20.429Z,10.00
2018-12-17T12:22:23.582Z,10.10
2018-12-17T12:25:26.924Z,10.27
2018-12-17T12:28:30.141Z,9.60
2018-12-17T12:31:33.355Z,9.67
2018-12-17T12:34:37.580Z,10.00
2018-12-17T12:37:40.843Z,9.10
2018-12-17T12:40:44.156Z,9.07
2018-12-17T12:43:47.362Z,9.50
2018-12-17T12:46:50.635Z,10.03
2018-12-17T12:49:54.010Z,9.63
2018-12-17T12:52:57.179Z,9.80
2018-12-17T12:56:00.396Z,9.70
2018-12-17T12:59:03.725Z,9.67
2018-12-17T13:02:06.977Z,9.53
2018-12-17T13:05:10.165Z,10.00
2018-12-17T13:08:13.297Z,9.17
2018-12-17T13:11:16.519Z,9.97
2018-12-17T13:14:20.035Z,9.20
2018-12-17T13:17:30.470Z,9.80
2018-12-17T13:20:33.662Z,9.33
2018-12-17T13:23:36.951Z,9.27
2018-12-17T13:26:40.081Z,8.70
2018-12-17T13:29:43.173Z,9.00
2018-12-17T13:32:46.306Z,9.00
2018-12-17T13:35:49.619Z,9.03
2018-12-17T13:38:52.910Z,8.97
2018-12-17T13:41:56.219Z,8.77
2018-12-17T13:44:59.710Z,9.03
2018-12-17T13:48:03.074Z,9.20
2018-12-17T13:51:11.791Z,8.87
2018-12-17T13:54:15.621Z,7.87
2018-12-17T13:57:18.822Z,8.83
2018-12-17T14:00:22.072Z,9.03
2018-12-17T14:03:25.260Z,8.97
2018-12-17T14:06:28.477Z,9.23
2018-12-17T14:09:36.317Z,8.80
2018-12-17T14:12:39.546Z,9.10
2018-12-17T14:15:48.242Z,8.90
2018-12-17T14:18:56.977Z,8.47
2018-12-17T14:22:02.592Z,8.30
2018-12-17T14:25:06.375Z,8.80
2018-12-17T14:28:09.632Z,8.50
2018-12-17T14:31:12.812Z,8.30
2018-12-17T14:34:16.203Z,8.00
2018-12-17T14:37:19.560Z,8.10
2018-12-17T14:40:22.690Z,8.07
2018-12-17T14:51:00.339Z,7.83
2018-12-17T14:54:03.606Z,7.47
2018-12-17T14:57:06.884Z,7.67
2018-12-17T15:00:10.215Z,7.67
2018-12-17T15:03:13.565Z,7.43
2018-12-17T15:06:16.929Z,7.23
2018-12-17T15:09:20.150Z,7.00
2018-12-17T15:12:23.378Z,7.13
2018-12-17T15:15:26.642Z,7.60
2018-12-17T15:18:29.750Z,6.90
2018-12-17T15:21:32.959Z,6.80
2018-12-17T15:24:40.359Z,6.33
2018-12-17T15:27:41.354Z,6.70
2018-12-17T15:30:45.631Z,7.30
2018-12-17T15:33:48.886Z,6.97
2018-12-17T15:36:52.108Z,6.83
2018-12-17T15:39:55.264Z,6.77
2018-12-17T15:42:58.472Z,6.63
2018-12-17T15:46:01.738Z,7.63
2018-12-17T15:49:04.959Z,7.60
2018-12-17T15:52:08.098Z,7.60
2018-12-17T15:55:12.365Z,7.67
2018-12-17T15:58:15.623Z,7.67
2018-12-17T16:01:18.872Z,8.03
2018-12-17T16:04:22.079Z,7.53
2018-12-17T16:07:25.281Z,7.63
2018-12-17T16:10:28.494Z,7.43
2018-12-17T16:13:31.938Z,7.03
2018-12-17T16:16:35.226Z,7.33
2018-12-17T16:19:38.404Z,6.87
2018-12-17T16:22:41.587Z,7.00
2018-12-17T16:25:45.037Z,6.80
2018-12-17T16:28:48.355Z,6.37
2018-12-17T16:31:57.326Z,6.97
2018-12-17T16:34:58.899Z,6.13
2018-12-17T16:38:02.201Z,6.93
2018-12-17T16:41:05.351Z,6.57
2018-12-17T16:44:08.626Z,7.00
2018-12-17T16:47:11.875Z,6.70
2018-12-17T16:50:16.202Z,6.67
2018-12-17T16:53:19.419Z,6.33
2018-12-17T16:56:22.745Z,6.43
2018-12-17T16:59:26.055Z,6.50
2018-12-17T17:02:29.227Z,6.17
2018-12-17T17:05:32.409Z,6.67
2018-12-17T17:08:35.603Z,6.50
2018-12-17T17:11:38.764Z,6.30
2018-12-17T17:14:42.190Z,6.60
2018-12-17T17:17:45.471Z,7.47
2018-12-17T17:20:48.856Z,6.80
2018-12-17T17:23:52.142Z,7.10
2018-12-17T17:26:55.647Z,7.00
2018-12-17T17:29:58.874Z,7.80
2018-12-17T17:33:02.303Z,7.03
2018-12-17T17:36:05.599Z,7.10
2018-12-17T17:39:09.409Z,7.43
2018-12-17T17:42:12.791Z,6.60
2018-12-17T17:45:15.956Z,6.83
2018-12-17T17:48:19.183Z,6.50
2018-12-17T17:51:22.295Z,6.60
2018-12-17T17:54:25.562Z,6.60
2018-12-17T17:57:28.888Z,5.90
2018-12-17T18:00:32.132Z,6.47
2018-12-17T18:03:35.330Z,6.10
2018-12-17T18:06:41.125Z,5.60
2018-12-17T18:09:44.396Z,6.00
2018-12-17T18:12:47.545Z,6.07
2018-12-17T18:15:50.709Z,6.23
2018-12-17T18:18:54.041Z,5.53
2018-12-17T18:29:32.281Z,5.50
2018-12-17T18:32:35.538Z,5.63
2018-12-17T18:35:39.105Z,5.43
2018-12-17T18:38:42.319Z,5.40
2018-12-17T18:41:45.552Z,5.40
2018-12-17T18:44:48.852Z,5.63
2018-12-17T18:47:52.022Z,5.50
2018-12-17T18:50:55.407Z,4.73
2018-12-17T18:53:58.690Z,5.23
2018-12-17T18:57:03.643Z,5.10
2018-12-17T19:00:07.873Z,5.50
2018-12-17T19:03:11.112Z,4.70
2018-12-17T19:06:14.598Z,4.63
2018-12-17T19:09:17.854Z,4.83
2018-12-17T19:12:21.136Z,5.10
2018-12-17T19:15:24.379Z,4.50
2018-12-17T19:18:29.022Z,4.20
2018-12-17T19:21:32.431Z,4.83
2018-12-17T19:24:36.366Z,4.43
2018-12-17T19:27:39.565Z,4.63
2018-12-17T19:33:53.819Z,4.27
2018-12-17T19:36:57.006Z,4.30
2018-12-17T19:40:00.164Z,4.60
2018-12-17T19:43:03.342Z,4.03
2018-12-17T19:46:06.557Z,4.53
2018-12-17T19:49:09.957Z,4.50
2018-12-17T19:52:13.160Z,11.73
2018-12-17T19:55:16.443Z,16.83
2018-12-17T19:58:19.718Z,15.67
2018-12-17T20:01:23.033Z,35.77
2018-12-17T20:04:26.286Z,39.60
2018-12-17T20:07:31.918Z,33.33
2018-12-17T20:10:35.542Z,28.23
2018-12-17T20:13:38.801Z,23.03
2018-12-17T20:16:42.028Z,19.27
2018-12-17T20:19:45.398Z,16.97
2018-12-17T20:22:48.690Z,15.37
2018-12-17T20:25:52.043Z,13.10
2018-12-17T20:28:55.216Z,10.80
2018-12-17T20:31:58.501Z,9.20
2018-12-17T20:35:01.905Z,9.97
2018-12-17T20:38:05.321Z,8.87
2018-12-17T20:41:08.515Z,7.93
2018-12-17T20:44:11.678Z,8.33
2018-12-17T20:47:15.009Z,9.20
2018-12-17T20:50:18.401Z,9.23
2018-12-17T20:53:21.663Z,10.20
2018-12-17T20:56:24.768Z,10.73
2018-12-17T20:59:27.964Z,11.93
2018-12-17T21:02:31.190Z,10.80
2018-12-17T21:05:34.357Z,11.70
2018-12-17T21:08:37.559Z,11.40
2018-12-17T21:11:40.853Z,12.10
2018-12-17T21:14:44.046Z,11.93
2018-12-17T21:17:47.321Z,11.23
2018-12-17T21:20:50.620Z,11.73
2018-12-17T21:23:54.283Z,11.57
2018-12-17T21:26:57.577Z,12.27
2018-12-17T21:30:00.820Z,12.13
2018-12-17T21:33:06.934Z,12.23
2018-12-17T21:36:09.384Z,13.13
2018-12-17T21:39:12.579Z,11.67
2018-12-17T21:42:15.706Z,11.97
2018-12-17T21:45:18.988Z,12.60
2018-12-17T21:48:22.323Z,11.93
2018-12-17T21:51:25.486Z,12.30
2018-12-17T21:54:28.762Z,13.23
2018-12-17T21:57:32.705Z,12.77
2018-12-17T22:00:36.184Z,12.20
2018-12-17T22:03:39.616Z,15.67
2018-12-17T22:06:43.314Z,15.27
2018-12-17T22:09:46.825Z,13.07
2018-12-17T22:12:51.426Z,11.73
2018-12-17T22:15:55.450Z,10.70
2018-12-17T22:18:58.806Z,9.97
2018-12-17T22:22:01.955Z,9.23
2018-12-17T22:25:05.356Z,8.33
2018-12-17T22:28:08.521Z,8.70
2018-12-17T22:31:11.701Z,8.40
2018-12-17T22:34:14.887Z,7.87
2018-12-17T22:37:18.085Z,6.90
2018-12-17T22:40:21.426Z,6.90
2018-12-17T22:43:24.592Z,6.80
2018-12-17T22:46:27.806Z,7.63
2018-12-17T22:49:30.980Z,6.80
2018-12-17T22:52:34.467Z,5.30
2018-12-17T22:55:37.726Z,4.70
2018-12-17T22:58:42.478Z,4.17
2018-12-17T23:01:45.938Z,3.80
2018-12-17T23:04:49.147Z,3.60
2018-12-17T23:07:52.456Z,3.70
2018-12-17T23:11:07.138Z,3.60
2018-12-17T23:14:21.541Z,3.40
2018-12-17T23:17:36.099Z,3.23
2018-12-17T23:20:39.239Z,3.10
2018-12-17T23:23:43.167Z,3.60
2018-12-17T23:26:46.350Z,3.63
2018-12-17T23:29:49.481Z,3.30
2018-12-17T23:32:52.803Z,3.07
2018-12-17T23:35:56.071Z,3.47
2018-12-17T23:38:59.291Z,3.57
2018-12-17T23:42:02.422Z,3.20
2018-12-17T23:45:05.947Z,3.00
2018-12-17T23:48:09.255Z,3.20
2018-12-17T23:51:12.516Z,3.40
2018-12-17T23:54:15.740Z,3.30
2018-12-17T23:57:18.916Z,3.23
